Airfield :
LOGIN :

Register | Disclaimer

   EN    FR    IT 

 










Legend :    VFR   Marginal VFR   IFR   Intensive IFR   Very Intensive IFR
Visi :
Ceiling :
>= 8 km
>= 3000ft
5 to 8 km
1000 to 3000 ft
1500m to 5 km
500 to 1000 ft
800 to 1500m
200 to 500 ft
< 800m
< 200 ft
Symbols :   Thunderstorms  Fog  Heavy snow  Heavy precipitations  Wind > 20 kt
SIGMETs :     Misc.  Thunderstorms  Icing  Turbulence  Mountain Waves  Volcanic Ashes






- Airport Elevation : 357 ft
- IATA code : TUF


LFOT - Tours

CURRENT METAR :
  • 071930Z AUTO 31003KT CAVOK 14/07 Q1022 NOSIG

EXPIRED METARs :
  • 071900Z AUTO 32003KT CAVOK 15/07 Q1022 NOSIG
  • 071830Z AUTO VRB02KT CAVOK 14/07 Q1022 NOSIG
  • 071800Z AUTO 31002KT CAVOK 15/07 Q1021 NOSIG
  • 071730Z AUTO 28003KT CAVOK 16/08 Q1021 NOSIG
  • 071700Z AUTO 28004KT 250V320 CAVOK 18/08 Q1021 NOSIG

TAF TAF LFOT
Valid from the 07 at 18:00 until the 08 at 18:00 UTC


071700Z 0718/0818 29004KT 9999 FEW040
PROB30
TEMPO 0803/0807 4000 BR
BECMG 0809/0812 04008KT



MET'MAP, your aeronautical weather chart ! - Copyright ORBIFLY December 2007 - Disclaimer

ORBIFLY MET'MAP TEAM :

Programming & Development : Alexandra Zaïnal
Original concept : Baudouin d'Aumeries
Technical & hardware support : Manuel Goepfert
Assistance : Marc-Olivier Méhu




SOURCES & CREDITS :

   NOAA